createdAt,value
2022-12-18T00:01:28.636Z,57.63
2022-12-18T00:03:56.681Z,50.87
2022-12-18T00:06:25.351Z,51.17
2022-12-18T00:08:52.709Z,53.90
2022-12-18T00:11:21.609Z,50.30
2022-12-18T00:13:49.011Z,49.10
2022-12-18T00:16:19.480Z,47.77
2022-12-18T00:18:47.494Z,52.00
2022-12-18T00:21:14.860Z,48.10
2022-12-18T00:23:43.424Z,50.10
2022-12-18T00:26:16.189Z,49.90
2022-12-18T00:28:44.121Z,49.63
2022-12-18T00:31:16.049Z,50.03
2022-12-18T00:33:43.474Z,47.60
2022-12-18T00:36:12.631Z,54.40
2022-12-18T00:38:40.477Z,46.63
2022-12-18T00:41:10.140Z,50.83
2022-12-18T00:43:38.385Z,45.27
2022-12-18T00:46:06.434Z,49.17
2022-12-18T00:48:33.912Z,51.50
2022-12-18T00:51:01.246Z,50.47
2022-12-18T00:53:28.908Z,48.97
2022-12-18T00:55:56.599Z,52.83
2022-12-18T00:58:23.935Z,47.97
2022-12-18T01:00:51.764Z,48.07
2022-12-18T01:03:19.199Z,48.33
2022-12-18T01:05:46.864Z,46.93
2022-12-18T01:08:14.572Z,46.90
2022-12-18T01:10:44.030Z,48.77
2022-12-18T01:13:11.386Z,46.10
2022-12-18T01:15:39.069Z,51.30
2022-12-18T01:18:06.830Z,52.27
2022-12-18T01:20:34.151Z,48.23
2022-12-18T01:23:01.747Z,52.83
2022-12-18T01:25:29.153Z,52.67
2022-12-18T01:27:56.523Z,48.93
2022-12-18T01:30:26.381Z,51.77
2022-12-18T01:32:53.969Z,47.40
2022-12-18T01:35:21.310Z,48.50
2022-12-18T01:37:49.053Z,48.33
2022-12-18T01:40:16.507Z,49.47
2022-12-18T01:42:43.839Z,48.00
2022-12-18T01:45:12.258Z,50.00
2022-12-18T01:48:02.682Z,52.90
2022-12-18T01:50:36.191Z,50.07
2022-12-18T01:53:23.704Z,45.20
2022-12-18T01:55:53.071Z,49.13
2022-12-18T01:58:23.187Z,51.27
2022-12-18T02:00:50.898Z,49.27
2022-12-18T02:03:20.694Z,55.30
2022-12-18T02:06:22.049Z,50.53
2022-12-18T02:09:14.993Z,44.17
2022-12-18T02:12:14.793Z,48.90
2022-12-18T02:14:44.910Z,48.60
2022-12-18T02:17:14.179Z,55.13
2022-12-18T02:20:06.357Z,55.27
2022-12-18T02:23:00.399Z,51.40
2022-12-18T02:25:46.597Z,49.13
2022-12-18T02:28:16.349Z,50.13
2022-12-18T02:30:44.148Z,53.23
2022-12-18T02:33:11.681Z,47.97
2022-12-18T02:35:39.357Z,46.77
2022-12-18T02:38:06.784Z,48.70
2022-12-18T02:40:34.879Z,53.77
2022-12-18T02:43:10.558Z,52.20
2022-12-18T02:45:47.343Z,53.07
2022-12-18T02:48:15.763Z,47.10
2022-12-18T02:50:47.083Z,47.67
2022-12-18T02:53:37.340Z,54.47
2022-12-18T02:56:16.644Z,53.27
2022-12-18T02:59:01.455Z,55.43
2022-12-18T03:01:34.118Z,47.33
2022-12-18T03:04:10.703Z,50.07
2022-12-18T03:06:42.639Z,53.67
2022-12-18T03:09:22.161Z,47.10
2022-12-18T03:12:21.966Z,48.97
2022-12-18T03:15:08.056Z,42.23
2022-12-18T03:17:36.456Z,46.37
2022-12-18T03:20:10.560Z,50.63
2022-12-18T03:22:38.026Z,53.97
2022-12-18T03:25:07.479Z,50.80
2022-12-18T03:27:35.433Z,52.93
2022-12-18T03:30:08.350Z,54.20
2022-12-18T03:33:00.004Z,52.73
2022-12-18T03:35:29.869Z,49.00
2022-12-18T03:37:57.650Z,50.60
2022-12-18T03:40:30.521Z,47.03
2022-12-18T03:43:04.372Z,55.20
2022-12-18T03:45:39.656Z,51.37
2022-12-18T03:48:09.253Z,45.60
2022-12-18T03:50:39.537Z,46.27
2022-12-18T03:53:38.185Z,46.53
2022-12-18T03:56:06.346Z,47.07
2022-12-18T03:58:34.202Z,42.87
2022-12-18T04:01:03.445Z,49.07
2022-12-18T04:03:31.267Z,51.53
2022-12-18T04:05:58.633Z,50.67
2022-12-18T04:08:28.337Z,45.83
2022-12-18T04:10:56.666Z,44.97
2022-12-18T04:13:44.344Z,48.83
2022-12-18T04:16:13.759Z,47.13
2022-12-18T04:18:41.318Z,50.13
2022-12-18T04:21:09.492Z,49.23
2022-12-18T04:23:37.584Z,44.37
2022-12-18T04:26:05.332Z,49.53
2022-12-18T04:28:34.031Z,50.53
2022-12-18T04:31:02.007Z,45.80
2022-12-18T04:33:29.359Z,51.90
2022-12-18T04:35:57.146Z,46.83
2022-12-18T04:38:25.870Z,49.00
2022-12-18T04:40:55.399Z,47.40
2022-12-18T04:43:23.066Z,47.57
2022-12-18T04:45:50.793Z,48.23
2022-12-18T04:48:18.209Z,49.70
2022-12-18T04:50:45.516Z,47.13
2022-12-18T04:53:13.197Z,45.60
2022-12-18T04:55:40.535Z,51.27
2022-12-18T04:58:07.880Z,43.30
2022-12-18T05:00:35.547Z,46.00
2022-12-18T05:03:03.465Z,50.70
2022-12-18T05:05:31.065Z,48.27
2022-12-18T05:07:58.686Z,47.53
2022-12-18T05:10:26.160Z,51.93
2022-12-18T05:13:01.400Z,50.40
2022-12-18T05:15:30.404Z,47.47
2022-12-18T05:17:58.569Z,49.03
2022-12-18T05:20:26.270Z,47.87
2022-12-18T05:22:54.126Z,49.23
2022-12-18T05:25:21.495Z,47.23
2022-12-18T05:27:48.845Z,56.07
2022-12-18T05:30:16.509Z,45.90
2022-12-18T05:32:43.854Z,43.97
2022-12-18T05:35:11.496Z,46.17
2022-12-18T05:37:42.958Z,48.70
2022-12-18T05:40:11.578Z,45.10
2022-12-18T05:42:39.203Z,45.50
2022-12-18T05:45:06.986Z,46.50
2022-12-18T05:47:34.431Z,45.97
2022-12-18T05:50:02.107Z,47.10
2022-12-18T05:52:29.480Z,39.27
2022-12-18T05:54:56.853Z,48.27
2022-12-18T05:57:24.437Z,44.40
2022-12-18T05:59:51.768Z,51.53
2022-12-18T06:02:19.203Z,58.17
2022-12-18T06:04:46.893Z,54.33
2022-12-18T06:07:14.200Z,47.70
2022-12-18T06:09:41.622Z,53.17
2022-12-18T06:12:09.374Z,43.03
2022-12-18T06:14:36.719Z,47.10
2022-12-18T06:17:04.082Z,48.00
2022-12-18T06:19:31.661Z,51.80
2022-12-18T06:21:59.906Z,50.97
2022-12-18T06:24:27.451Z,48.53
2022-12-18T06:26:55.297Z,46.60
2022-12-18T06:29:22.696Z,56.83
2022-12-18T06:31:50.287Z,51.77
2022-12-18T06:34:18.066Z,47.43
2022-12-18T06:36:45.385Z,49.63
2022-12-18T06:39:12.752Z,81.93
2022-12-18T06:41:40.363Z,88.60
2022-12-18T06:44:07.782Z,72.27
2022-12-18T06:46:35.255Z,68.53
2022-12-18T06:49:02.868Z,68.03
2022-12-18T06:51:30.175Z,56.83
2022-12-18T06:53:57.719Z,58.07
2022-12-18T06:56:25.348Z,62.47
2022-12-18T06:58:52.811Z,66.47
2022-12-18T07:01:20.295Z,48.40
2022-12-18T07:03:48.081Z,48.27
2022-12-18T07:06:16.552Z,51.37
2022-12-18T07:08:44.246Z,55.27
2022-12-18T07:11:11.906Z,46.87
2022-12-18T07:13:39.743Z,50.40
2022-12-18T07:16:16.046Z,53.67
2022-12-18T07:18:46.295Z,47.87
2022-12-18T07:21:16.594Z,47.80
2022-12-18T07:23:44.549Z,47.40
2022-12-18T07:26:13.171Z,45.50
2022-12-18T07:28:41.005Z,48.10
2022-12-18T07:31:10.112Z,52.17
2022-12-18T07:33:39.883Z,49.13
2022-12-18T07:36:08.130Z,50.73
2022-12-18T07:38:35.935Z,54.60
2022-12-18T07:41:11.056Z,52.70
2022-12-18T07:43:39.060Z,50.77
2022-12-18T07:46:07.417Z,51.63
2022-12-18T07:48:35.062Z,52.37
2022-12-18T07:51:03.605Z,55.43
2022-12-18T07:53:31.376Z,49.10
2022-12-18T07:56:25.541Z,47.97
2022-12-18T07:58:49.923Z,58.07
2022-12-18T08:01:17.450Z,49.70
2022-12-18T08:03:45.310Z,54.77
2022-12-18T08:06:12.709Z,54.57
2022-12-18T08:08:42.347Z,58.73
2022-12-18T08:11:10.023Z,53.67
2022-12-18T08:13:37.525Z,53.07
2022-12-18T08:16:07.030Z,56.07
2022-12-18T08:18:35.439Z,47.17
2022-12-18T08:21:16.178Z,54.73
2022-12-18T08:23:44.135Z,50.63
2022-12-18T08:26:12.167Z,58.77
2022-12-18T08:28:39.560Z,53.70
2022-12-18T08:31:07.466Z,64.27
2022-12-18T08:33:35.816Z,54.97
2022-12-18T08:36:06.141Z,47.53
2022-12-18T08:38:34.072Z,53.13
2022-12-18T08:41:06.571Z,63.50
2022-12-18T08:43:52.759Z,61.20
2022-12-18T08:46:20.961Z,62.70
2022-12-18T08:48:48.664Z,54.83
2022-12-18T08:51:17.069Z,55.57
2022-12-18T08:53:45.508Z,48.43
2022-12-18T08:56:13.382Z,47.90
2022-12-18T08:58:40.980Z,48.40
2022-12-18T09:01:12.852Z,45.63
2022-12-18T09:03:41.033Z,50.40
2022-12-18T09:06:08.759Z,56.70
2022-12-18T09:08:37.799Z,48.67
2022-12-18T09:11:05.903Z,50.50
2022-12-18T09:13:33.314Z,54.53
2022-12-18T09:16:00.616Z,47.33
2022-12-18T09:18:28.344Z,53.37
2022-12-18T09:20:55.666Z,45.03
2022-12-18T09:23:23.154Z,44.93
2022-12-18T09:25:50.772Z,44.10
2022-12-18T09:28:18.810Z,46.07
2022-12-18T09:30:49.985Z,44.77
2022-12-18T09:33:18.090Z,47.30
2022-12-18T09:35:45.740Z,45.10
2022-12-18T09:38:15.146Z,45.43
2022-12-18T09:40:57.270Z,45.47
2022-12-18T09:43:37.060Z,48.63
2022-12-18T09:46:07.441Z,43.07
2022-12-18T09:48:46.646Z,47.37
2022-12-18T09:51:18.430Z,50.50
2022-12-18T09:53:48.567Z,52.33
2022-12-18T09:56:20.493Z,50.17
2022-12-18T09:59:01.854Z,52.07
2022-12-18T10:01:38.898Z,49.30
2022-12-18T10:04:11.055Z,46.27
2022-12-18T10:06:55.103Z,43.60
2022-12-18T10:09:38.452Z,42.07
2022-12-18T10:12:18.838Z,45.40
2022-12-18T10:15:11.861Z,42.23
2022-12-18T10:17:47.216Z,39.30
2022-12-18T10:20:17.709Z,43.33
2022-12-18T10:23:26.483Z,41.37
2022-12-18T10:25:54.084Z,42.33
2022-12-18T10:28:21.597Z,40.53
2022-12-18T10:30:48.975Z,45.20
2022-12-18T10:33:28.438Z,46.67
2022-12-18T10:35:55.900Z,43.37
2022-12-18T10:38:25.632Z,47.77
2022-12-18T10:41:06.609Z,34.10
2022-12-18T10:43:41.783Z,38.37
2022-12-18T10:46:09.113Z,43.77
2022-12-18T10:48:40.179Z,47.30
2022-12-18T10:51:10.721Z,42.90
2022-12-18T10:53:41.352Z,41.03
2022-12-18T10:56:08.729Z,43.27
2022-12-18T10:58:37.190Z,42.57
2022-12-18T11:01:13.004Z,37.20
2022-12-18T11:03:41.426Z,40.77
2022-12-18T11:06:20.205Z,37.43
2022-12-18T11:09:01.923Z,40.60
2022-12-18T11:11:30.115Z,42.90
2022-12-18T11:14:05.603Z,36.57
2022-12-18T11:17:03.046Z,41.42
2022-12-18T11:19:42.051Z,45.50
2022-12-18T11:22:25.413Z,44.17
2022-12-18T11:25:29.985Z,37.73
2022-12-18T11:27:56.447Z,38.83
2022-12-18T11:30:29.332Z,37.17
2022-12-18T11:33:26.378Z,43.83
2022-12-18T11:35:55.059Z,34.53
2022-12-18T11:38:42.513Z,35.40
2022-12-18T11:41:49.266Z,33.43
2022-12-18T11:44:22.403Z,35.00
2022-12-18T11:47:01.902Z,34.60
2022-12-18T11:49:36.243Z,37.17
2022-12-18T11:52:25.387Z,38.77
2022-12-18T11:54:54.266Z,29.47
2022-12-18T11:57:42.327Z,29.40
2022-12-18T12:00:20.667Z,31.63
2022-12-18T12:03:10.639Z,35.80
2022-12-18T12:05:56.159Z,36.33
2022-12-18T12:08:35.774Z,34.85
2022-12-18T12:11:21.190Z,34.47
2022-12-18T12:14:17.711Z,34.70
2022-12-18T12:17:00.594Z,29.60
2022-12-18T12:20:09.728Z,32.83
2022-12-18T12:22:51.213Z,32.60
2022-12-18T12:25:27.928Z,31.87
2022-12-18T12:28:04.380Z,29.90
2022-12-18T12:33:27.238Z,35.47
2022-12-18T12:36:27.307Z,32.10
2022-12-18T12:38:59.216Z,30.63
2022-12-18T12:41:47.733Z,29.40
2022-12-18T12:44:18.272Z,29.73
2022-12-18T12:46:46.306Z,33.83
2022-12-18T12:49:16.536Z,38.37
2022-12-18T12:51:57.981Z,29.53
2022-12-18T12:54:25.925Z,30.40
2022-12-18T12:57:04.979Z,32.43
2022-12-18T12:59:39.507Z,30.20
2022-12-18T13:02:33.578Z,29.20
2022-12-18T13:05:24.565Z,30.27
2022-12-18T13:08:00.416Z,33.87
2022-12-18T13:10:33.469Z,36.53
2022-12-18T13:13:11.097Z,33.73
2022-12-18T13:15:46.233Z,30.70
2022-12-18T13:18:21.619Z,32.63
2022-12-18T13:20:58.507Z,34.30
2022-12-18T13:23:34.190Z,35.20
2022-12-18T13:26:28.877Z,32.47
2022-12-18T13:28:57.860Z,32.67
2022-12-18T13:31:40.704Z,33.43
2022-12-18T13:34:26.869Z,35.47
2022-12-18T13:36:56.561Z,33.27
2022-12-18T13:39:30.301Z,30.07
2022-12-18T13:42:06.971Z,33.65
2022-12-18T13:44:41.418Z,33.30
2022-12-18T13:47:38.663Z,33.17
2022-12-18T13:50:29.855Z,28.30
2022-12-18T13:53:04.113Z,39.90
2022-12-18T13:55:31.455Z,33.87
2022-12-18T13:58:08.135Z,31.40
2022-12-18T14:00:35.996Z,32.73
2022-12-18T14:03:21.737Z,33.83
2022-12-18T14:06:15.705Z,29.15
2022-12-18T14:08:45.293Z,54.70
2022-12-18T14:11:23.423Z,58.33
2022-12-18T14:13:53.083Z,55.33
2022-12-18T14:16:20.902Z,59.87
2022-12-18T14:18:56.529Z,54.47
2022-12-18T14:21:30.427Z,52.17
2022-12-18T14:24:10.185Z,51.50
2022-12-18T14:26:37.776Z,49.97
2022-12-18T14:29:30.404Z,50.53
2022-12-18T14:32:19.245Z,132.30
2022-12-18T14:34:47.048Z,98.13
2022-12-18T14:37:16.212Z,82.40
2022-12-18T14:40:01.274Z,58.07
2022-12-18T14:42:30.954Z,62.17
2022-12-18T14:45:41.754Z,64.17
2022-12-18T14:48:23.657Z,70.30
2022-12-18T14:50:59.996Z,65.93
2022-12-18T14:53:52.409Z,70.72
2022-12-18T14:56:24.855Z,67.63
2022-12-18T14:58:57.643Z,70.40
2022-12-18T15:01:33.620Z,64.63
2022-12-18T15:04:01.608Z,77.10
2022-12-18T15:06:34.149Z,82.63
2022-12-18T15:09:04.104Z,97.90
2022-12-18T15:11:37.473Z,86.80
2022-12-18T15:14:24.963Z,75.50
2022-12-18T15:16:54.554Z,66.30
2022-12-18T15:19:52.064Z,66.00
2022-12-18T15:22:27.853Z,63.00
2022-12-18T15:24:56.263Z,64.97
2022-12-18T15:27:31.137Z,67.50
2022-12-18T15:30:07.737Z,66.03
2022-12-18T15:32:35.840Z,64.40
2022-12-18T15:35:12.464Z,61.30
2022-12-18T15:37:43.518Z,53.45
2022-12-18T15:40:19.197Z,70.03
2022-12-18T15:43:06.409Z,64.32
2022-12-18T15:45:34.047Z,60.77
2022-12-18T15:48:08.119Z,57.93
2022-12-18T15:50:35.828Z,60.93
2022-12-18T15:53:03.149Z,67.67
2022-12-18T15:55:59.315Z,61.53
2022-12-18T15:58:28.607Z,66.57
2022-12-18T16:00:56.380Z,63.53
2022-12-18T16:03:24.024Z,58.70
2022-12-18T16:05:51.954Z,59.10
2022-12-18T16:08:19.323Z,61.93
2022-12-18T16:10:47.031Z,71.67
2022-12-18T16:13:16.858Z,68.50
2022-12-18T16:15:44.289Z,72.07
2022-12-18T16:18:11.962Z,64.33
2022-12-18T16:20:39.419Z,68.20
2022-12-18T16:23:06.776Z,75.13
2022-12-18T16:25:34.778Z,63.53
2022-12-18T16:28:02.266Z,70.17
2022-12-18T16:30:35.442Z,74.77
2022-12-18T16:33:07.444Z,76.12
2022-12-18T16:35:35.268Z,66.23
2022-12-18T16:38:02.617Z,58.67
2022-12-18T16:40:31.423Z,58.40
2022-12-18T16:42:58.755Z,64.97
2022-12-18T16:45:34.013Z,67.27
2022-12-18T16:48:01.770Z,52.27
2022-12-18T16:50:29.075Z,70.03
2022-12-18T16:52:56.385Z,57.40
2022-12-18T16:55:24.033Z,59.07
2022-12-18T16:57:51.503Z,50.73
2022-12-18T17:00:18.948Z,60.00
2022-12-18T17:02:46.987Z,51.43
2022-12-18T17:05:14.598Z,54.43
2022-12-18T17:07:41.907Z,63.47
2022-12-18T17:10:10.110Z,53.80
2022-12-18T17:12:37.464Z,55.77
2022-12-18T17:15:05.260Z,47.97
2022-12-18T17:17:32.924Z,53.27
2022-12-18T17:20:00.820Z,63.07
2022-12-18T17:22:28.150Z,57.47
2022-12-18T17:24:55.759Z,53.43
2022-12-18T17:27:23.220Z,57.87
2022-12-18T17:29:50.570Z,52.53
2022-12-18T17:32:18.353Z,55.73
2022-12-18T17:34:45.722Z,53.33
2022-12-18T17:37:13.108Z,65.23
2022-12-18T17:39:40.725Z,59.73
2022-12-18T17:42:10.637Z,75.47
2022-12-18T17:44:43.326Z,73.33
2022-12-18T17:47:12.219Z,65.80
2022-12-18T17:49:39.652Z,56.73
2022-12-18T17:52:08.070Z,73.47
2022-12-18T17:54:39.364Z,70.73
2022-12-18T17:57:06.708Z,80.50
2022-12-18T17:59:34.414Z,77.53
2022-12-18T18:02:01.813Z,81.27
2022-12-18T18:04:30.482Z,73.77
2022-12-18T18:06:57.937Z,71.10
2022-12-18T18:09:25.242Z,69.90
2022-12-18T18:12:11.494Z,68.50
2022-12-18T18:14:38.928Z,66.93
2022-12-18T18:17:07.064Z,71.60
2022-12-18T18:19:34.459Z,77.20
2022-12-18T18:22:02.977Z,77.87
2022-12-18T18:24:31.241Z,74.97
2022-12-18T18:27:01.404Z,76.63
2022-12-18T18:29:30.511Z,75.90
2022-12-18T18:31:58.656Z,75.60
2022-12-18T18:34:28.144Z,81.17
2022-12-18T18:36:55.544Z,77.57
2022-12-18T18:39:23.156Z,80.03
2022-12-18T18:41:50.562Z,90.93
2022-12-18T18:44:18.495Z,82.17
2022-12-18T18:46:46.206Z,84.20
2022-12-18T18:49:14.308Z,83.50
2022-12-18T18:51:42.006Z,87.70
2022-12-18T18:54:09.865Z,79.77
2022-12-18T18:57:04.124Z,78.10
2022-12-18T18:59:31.470Z,81.53
2022-12-18T19:02:00.754Z,80.60
2022-12-18T19:04:33.439Z,79.63
2022-12-18T19:07:01.008Z,77.40
2022-12-18T19:09:28.604Z,79.67
2022-12-18T19:12:15.253Z,81.67
2022-12-18T19:14:43.048Z,80.15
2022-12-18T19:17:10.722Z,75.73
2022-12-18T19:19:38.395Z,78.57
2022-12-18T19:22:06.828Z,83.33
2022-12-18T19:24:34.556Z,86.00
2022-12-18T19:27:01.938Z,99.17
2022-12-18T19:29:29.416Z,120.87
2022-12-18T19:31:57.051Z,134.60
2022-12-18T19:34:24.465Z,119.33
2022-12-18T19:36:56.476Z,114.83
2022-12-18T19:39:27.000Z,96.37
2022-12-18T19:41:54.622Z,92.20
2022-12-18T19:44:22.201Z,89.67
2022-12-18T19:46:50.397Z,98.27
2022-12-18T19:49:18.296Z,103.40
2022-12-18T19:51:45.828Z,83.87
2022-12-18T19:54:17.076Z,74.30
2022-12-18T19:56:45.337Z,76.57
2022-12-18T19:59:12.724Z,72.83
2022-12-18T20:01:40.542Z,68.47
2022-12-18T20:04:08.493Z,77.23
2022-12-18T20:06:49.732Z,75.13
2022-12-18T20:09:17.483Z,76.07
2022-12-18T20:11:45.316Z,75.53
2022-12-18T20:14:13.157Z,91.40
2022-12-18T20:16:40.965Z,93.17
2022-12-18T20:19:08.779Z,94.23
2022-12-18T20:21:36.992Z,72.17
2022-12-18T20:24:04.829Z,72.40
2022-12-18T20:26:32.136Z,76.07
2022-12-18T20:28:59.555Z,76.03
2022-12-18T20:31:27.335Z,74.67
2022-12-18T20:33:59.638Z,90.03
2022-12-18T20:36:29.539Z,87.10
2022-12-18T20:39:00.493Z,90.07
2022-12-18T20:41:37.205Z,82.77
2022-12-18T20:44:06.165Z,84.80
2022-12-18T20:46:38.098Z,83.83
2022-12-18T20:49:05.463Z,77.37
2022-12-18T20:51:33.489Z,77.83
2022-12-18T20:54:01.158Z,79.77
2022-12-18T20:56:30.719Z,82.60
2022-12-18T20:58:58.802Z,74.77
2022-12-18T21:01:27.794Z,78.13
2022-12-18T21:03:55.247Z,86.90
2022-12-18T21:06:23.241Z,86.20
2022-12-18T21:08:51.076Z,82.23
2022-12-18T21:11:40.173Z,78.20
2022-12-18T21:14:22.014Z,79.53
2022-12-18T21:16:49.545Z,79.87
2022-12-18T21:19:18.707Z,73.40
2022-12-18T21:21:46.130Z,79.50
2022-12-18T21:24:13.675Z,82.77
2022-12-18T21:26:46.032Z,86.40
2022-12-18T21:29:19.370Z,80.80
2022-12-18T21:31:47.412Z,86.60
2022-12-18T21:34:22.566Z,80.07
2022-12-18T21:36:50.223Z,69.97
2022-12-18T21:39:17.710Z,74.67
2022-12-18T21:42:05.985Z,75.43
2022-12-18T21:47:22.757Z,70.35
2022-12-18T21:49:52.641Z,70.20
2022-12-18T21:52:26.238Z,73.27
2022-12-18T21:55:07.978Z,76.90
2022-12-18T21:57:39.757Z,70.22
2022-12-18T22:00:08.146Z,72.40
2022-12-18T22:02:39.521Z,76.00
2022-12-18T22:05:07.926Z,72.67
2022-12-18T22:07:35.402Z,70.17
2022-12-18T22:10:02.739Z,144.70
2022-12-18T22:12:43.118Z,126.10
2022-12-18T22:15:11.449Z,116.90
2022-12-18T22:17:40.800Z,127.30
2022-12-18T22:20:09.353Z,112.70
2022-12-18T22:22:36.676Z,112.90
2022-12-18T22:25:04.730Z,108.63
2022-12-18T22:27:32.074Z,100.80
2022-12-18T22:30:05.594Z,95.67
2022-12-18T22:32:33.701Z,100.77
2022-12-18T22:35:06.283Z,101.93
2022-12-18T22:37:37.074Z,102.70
2022-12-18T22:40:06.105Z,96.90
2022-12-18T22:42:34.757Z,99.33
2022-12-18T22:45:02.356Z,101.00
2022-12-18T22:47:30.935Z,100.03
2022-12-18T22:49:58.521Z,108.10
2022-12-18T22:52:26.235Z,104.20
2022-12-18T22:54:54.201Z,96.03
2022-12-18T22:57:22.395Z,123.00
2022-12-18T22:59:50.588Z,126.20
2022-12-18T23:02:18.930Z,126.30
2022-12-18T23:04:47.752Z,118.13
2022-12-18T23:07:16.340Z,116.00
2022-12-18T23:09:44.156Z,111.40
2022-12-18T23:12:19.280Z,123.17
2022-12-18T23:14:47.345Z,110.20
2022-12-18T23:17:14.730Z,110.00
2022-12-18T23:19:48.667Z,110.13
2022-12-18T23:22:17.218Z,102.80
2022-12-18T23:24:44.589Z,110.67
2022-12-18T23:27:12.371Z,111.03
2022-12-18T23:29:40.505Z,110.50
2022-12-18T23:32:07.970Z,103.93
2022-12-18T23:34:35.438Z,116.43
2022-12-18T23:37:03.766Z,108.97
2022-12-18T23:39:31.377Z,113.13
2022-12-18T23:41:58.757Z,104.27
2022-12-18T23:44:26.441Z,108.83
2022-12-18T23:46:53.826Z,98.17
2022-12-18T23:49:21.168Z,105.30
2022-12-18T23:51:49.080Z,101.97
2022-12-18T23:54:16.400Z,101.00
2022-12-18T23:56:43.765Z,100.00
2022-12-18T23:59:11.387Z,99.83
